Time;durP1;ratioP1;P1;durP2;ratioP2;P2;SDS_P1;SDS_P2;PMS_P1;PMS_P2;Temp;Humidity;BMP_temperature;BMP_pressure;BME280_temperature;BME280_humidity;BME280_pressure;Samples;Min_cycle;Max_cycle;Signal;HPM_P1;HPM_P2
2023/08/25 00:00:32;;;;;;;14.40;9.10;;;;;;;18.52;68.74;98465.73;435361;1253;109235;-44
2023/08/25 00:10:59;;;;;;;13.50;10.60;;;;;;;18.48;68.90;98445.55;435353;1253;99308;-41
2023/08/25 00:21:06;;;;;;;14.20;11.80;;;;;;;18.28;69.21;98422.26;435502;1250;110911;-43
2023/08/25 00:31:13;;;;;;;17.30;11.50;;;;;;;18.19;69.78;98411.96;435224;1255;380249;-44
2023/08/25 00:41:20;;;;;;;14.70;11.30;;;;;;;18.24;69.73;98422.58;435362;1253;99254;-44
2023/08/25 00:51:29;;;;;;;19.80;11.30;;;;;;;18.10;70.15;98401.73;435404;1253;108252;-42
2023/08/25 01:01:35;;;;;;;;;;;;;;;18.03;70.23;98404.81;435251;1253;98511;-43
2023/08/25 01:11:40;;;;;;;16.00;10.90;;;;;;;17.94;70.56;98391.02;436220;1250;112192;-43
2023/08/25 01:21:52;;;;;;;14.50;11.00;;;;;;;17.84;71.00;98383.23;436576;1247;106579;-44
2023/08/25 01:42:03;;;;;;;16.70;11.50;;;;;;;17.84;71.52;98359.97;436290;1252;107661;-42
2023/08/25 01:52:12;;;;;;;17.80;14.90;;;;;;;17.72;71.94;98345.56;436507;1252;98821;-42
2023/08/25 02:02:19;;;;;;;16.50;13.60;;;;;;;17.73;71.53;98348.89;436491;1252;111456;-43
2023/08/25 02:12:24;;;;;;;19.10;13.40;;;;;;;17.71;71.52;98345.36;436291;1247;108131;-43
2023/08/25 02:22:31;;;;;;;18.70;11.00;;;;;;;17.61;72.00;98331.38;436410;1253;99256;-44
2023/08/25 02:32:38;;;;;;;12.80;10.00;;;;;;;17.64;72.26;98325.20;436233;1260;108488;-42
2023/08/25 02:42:45;;;;;;;23.40;11.70;;;;;;;17.77;72.10;98320.83;436901;1247;99231;-43
2023/08/25 03:13:04;;;;;;;20.40;11.70;;;;;;;17.78;72.13;98321.51;436327;1252;99160;-44
2023/08/25 03:23:11;;;;;;;19.00;12.10;;;;;;;17.73;72.04;98306.52;436347;1253;108408;-43
2023/08/25 03:43:22;;;;;;;28.10;11.50;;;;;;;17.54;72.45;98274.46;436262;1251;111762;-41
2023/08/25 03:53:29;;;;;;;19.10;13.00;;;;;;;17.49;72.47;98267.86;436300;1247;108464;-41
2023/08/25 04:13:41;;;;;;;25.20;10.90;;;;;;;17.66;72.59;98271.55;436426;1250;107881;-42
2023/08/25 04:44:00;;;;;;;19.10;11.30;;;;;;;18.23;72.49;98257.93;436237;1248;108370;-42
2023/08/25 04:54:07;;;;;;;20.00;11.10;;;;;;;18.28;72.19;98239.73;436421;1253;98859;-43
2023/08/25 05:04:15;;;;;;;18.40;9.50;;;;;;;18.61;72.22;98216.17;436361;1259;108710;-44
2023/08/25 05:14:21;;;;;;;25.70;11.70;;;;;;;19.62;71.29;98192.43;436357;1247;99281;-44
2023/08/25 05:24:28;;;;;;;20.00;9.00;;;;;;;20.22;69.76;98184.08;436329;1253;111820;-43
2023/08/25 05:34:34;;;;;;;19.70;10.10;;;;;;;20.46;69.05;98174.04;436306;1260;108492;-43
2023/08/25 05:44:41;;;;;;;18.40;9.30;;;;;;;20.82;67.99;98182.30;436333;1248;97985;-44
2023/08/25 05:54:48;;;;;;;18.80;8.90;;;;;;;20.76;67.61;98185.67;436267;1251;107008;-43
2023/08/25 06:04:55;;;;;;;12.10;8.60;;;;;;;20.63;67.57;98178.64;436498;1253;99358;-43
2023/08/25 06:15:03;;;;;;;17.20;9.00;;;;;;;20.45;67.91;98162.69;436110;1253;111786;-44
2023/08/25 06:35:14;;;;;;;13.60;8.20;;;;;;;20.52;68.68;98165.04;435589;1252;99307;-43
2023/08/25 06:45:21;;;;;;;16.90;8.20;;;;;;;20.67;69.15;98160.55;435446;1251;109095;-44
2023/08/25 06:55:27;;;;;;;13.10;7.80;;;;;;;20.90;69.40;98159.48;435557;1253;99314;-43
2023/08/25 07:05:33;;;;;;;12.30;8.00;;;;;;;21.16;69.80;98164.16;435398;1253;111828;-43
2023/08/25 07:15:41;;;;;;;19.20;8.70;;;;;;;21.54;70.06;98173.39;436177;1252;106968;-44
2023/08/25 07:25:52;;;;;;;12.60;6.20;;;;;;;22.27;70.16;98173.38;436365;1248;99234;-42
2023/08/25 07:35:59;;;;;;;14.90;7.50;;;;;;;22.98;69.86;98163.79;436392;1248;106729;-42
2023/08/25 07:46:06;;;;;;;8.10;6.70;;;;;;;23.84;69.42;98149.87;436361;1253;98523;-43
2023/08/25 07:56:13;;;;;;;10.80;6.80;;;;;;;24.92;67.01;98130.76;436236;1252;111787;-43
2023/08/25 08:06:20;;;;;;;10.20;7.10;;;;;;;25.81;64.92;98141.43;436374;1251;108533;-42
2023/08/25 08:26:33;;;;;;;15.80;7.30;;;;;;;27.31;59.62;98151.42;436225;1258;109023;-42
2023/08/25 08:36:40;;;;;;;13.30;7.10;;;;;;;26.85;57.71;98151.91;436394;1248;98779;-42
2023/08/25 08:46:49;;;;;;;10.30;7.30;;;;;;;27.37;57.28;98147.87;436238;1251;111254;-43
2023/08/25 08:56:53;;;;;;;30.40;8.60;;;;;;;28.10;57.01;98144.80;436342;1247;107943;-42
2023/08/25 09:06:57;;;;;;;15.40;8.40;;;;;;;28.57;56.29;98145.20;436395;1253;99317;-43
2023/08/25 09:27:21;;;;;;;9.80;7.60;;;;;;;29.00;55.54;98139.63;436404;1248;99227;-44
2023/08/25 09:47:45;;;;;;;11.70;7.50;;;;;;;29.42;54.01;98139.63;436516;1248;107255;-43
2023/08/25 09:57:53;;;;;;;10.50;7.70;;;;;;;29.86;54.03;98127.35;436443;1247;99214;-43
2023/08/25 10:08:01;;;;;;;10.60;7.00;;;;;;;30.05;52.62;98122.41;436410;1251;107807;-43
2023/08/25 10:18:11;;;;;;;15.30;7.90;;;;;;;30.26;52.70;98119.85;436257;1255;99343;-43
2023/08/25 10:28:19;;;;;;;20.10;5.90;;;;;;;30.45;52.22;98121.73;436398;1251;111755;-44
2023/08/25 10:38:39;;;;;;;10.60;6.20;;;;;;;30.87;51.88;98124.26;436331;1248;99207;-42
2023/08/25 10:58:59;;;;;;;12.10;6.20;;;;;;;31.09;50.22;98115.73;436647;1248;99254;-42
2023/08/25 11:39:20;;;;;;;11.60;6.00;;;;;;;31.31;48.79;98125.75;437176;1249;98435;-42
2023/08/25 11:49:27;;;;;;;8.60;5.60;;;;;;;31.20;48.02;98124.80;437423;1252;99493;-44
2023/08/25 11:59:34;;;;;;;14.60;6.60;;;;;;;30.84;48.07;98123.70;438552;1250;97953;-43
2023/08/25 12:19:48;;;;;;;9.00;5.50;;;;;;;31.11;47.83;98120.66;439009;1251;99875;-42
2023/08/25 12:29:55;;;;;;;6.60;5.80;;;;;;;31.11;47.45;98117.38;438737;1251;448585;-43
2023/08/25 12:40:09;;;;;;;9.50;5.20;;;;;;;31.23;47.27;98114.86;438907;1247;103227;-43
2023/08/25 12:50:17;;;;;;;8.50;6.00;;;;;;;31.26;47.13;98114.80;437655;1250;99699;-43
2023/08/25 13:00:24;;;;;;;9.50;5.40;;;;;;;31.02;47.00;98115.90;437373;1247;97975;-42
2023/08/25 13:20:36;;;;;;;9.80;6.60;;;;;;;31.14;46.49;98105.15;435807;1252;99533;-43
2023/08/25 13:30:44;;;;;;;7.10;5.60;;;;;;;30.97;47.02;98105.32;436043;1250;104311;-43
2023/08/25 13:40:50;;;;;;;11.90;5.90;;;;;;;30.96;47.27;98096.19;435942;1252;99233;-43
2023/08/25 13:50:56;;;;;;;6.70;5.10;;;;;;;31.07;47.14;98091.36;435822;1252;98834;-44
2023/08/25 14:01:02;;;;;;;7.70;5.50;;;;;;;31.11;47.19;98087.73;435673;1252;100749;-41
2023/08/25 14:11:08;;;;;;;6.50;4.50;;;;;;;31.03;46.76;98076.75;435883;1247;99243;-42
2023/08/25 14:21:12;;;;;;;5.90;4.00;;;;;;;31.02;46.31;98072.62;436460;1251;111921;-42
2023/08/25 14:31:18;;;;;;;6.00;3.70;;;;;;;31.15;46.39;98075.91;436393;1251;100646;-44
2023/08/25 15:01:41;;;;;;;15.50;6.60;;;;;;;30.96;45.98;98082.23;436386;1251;99234;-42
2023/08/25 15:11:48;;;;;;;11.00;6.50;;;;;;;30.69;46.94;98083.15;436335;1251;112882;-42
2023/08/25 15:21:54;;;;;;;7.70;5.80;;;;;;;30.61;47.54;98082.77;436338;1250;107460;-43
2023/08/25 15:32:00;;;;;;;7.30;6.00;;;;;;;30.58;47.79;98081.95;436422;1251;99234;-43
2023/08/25 15:42:08;;;;;;;11.00;6.10;;;;;;;30.59;47.93;98084.77;436463;1251;107626;-42
2023/08/25 15:52:14;;;;;;;23.60;6.90;;;;;;;30.54;48.23;98088.38;436470;1251;99843;-43
2023/08/25 16:02:20;;;;;;;12.00;7.50;;;;;;;30.50;48.61;98090.05;436529;1251;112931;-43
2023/08/25 16:12:27;;;;;;;6.50;3.90;;;;;;;30.32;48.27;98087.84;436383;1250;107163;-43
2023/08/25 16:22:34;;;;;;;6.80;3.70;;;;;;;29.99;47.89;98074.97;436391;1251;99237;-42
2023/08/25 16:42:48;;;;;;;6.40;4.20;;;;;;;29.20;48.18;98086.36;436422;1249;99240;-42
2023/08/25 16:52:54;;;;;;;4.10;3.50;;;;;;;28.75;48.68;98094.95;436369;1247;112044;-43
2023/08/25 17:23:11;;;;;;;11.70;4.60;;;;;;;27.87;50.65;98088.65;436366;1247;108093;-42
2023/08/25 18:13:46;;;;;;;17.90;8.70;;;;;;;26.23;54.67;98082.75;436418;1256;109299;-43
2023/08/25 18:23:54;;;;;;;43.60;28.40;;;;;;;25.95;55.36;98077.55;436387;1247;99551;-43
2023/08/25 18:44:07;;;;;;;39.50;26.00;;;;;;;25.61;56.83;98097.27;436410;1251;108503;-42
2023/08/25 18:54:14;;;;;;;31.40;14.40;;;;;;;25.44;57.34;98102.85;436428;1251;99284;-42
2023/08/25 19:04:18;;;;;;;;;;;;;;;25.24;58.03;98104.62;436426;1251;107543;-43
2023/08/25 19:14:26;;;;;;;20.10;11.30;;;;;;;25.01;58.23;98113.64;436435;1247;99247;-43
2023/08/25 19:24:33;;;;;;;36.50;23.30;;;;;;;24.92;58.64;98118.09;436480;1251;112142;-42
2023/08/25 19:34:40;;;;;;;43.20;21.00;;;;;;;24.85;59.17;98123.90;436350;1247;109451;-42
2023/08/25 19:44:47;;;;;;;;;;;;;;;24.88;59.69;98134.41;436324;1251;98713;-43
2023/08/25 19:54:57;;;;;;;55.00;15.80;;;;;;;24.81;59.76;98139.20;436303;1253;108094;-44
2023/08/25 20:05:03;;;;;;;22.90;12.20;;;;;;;24.94;59.91;98144.73;436349;1252;99164;-43
2023/08/25 20:25:18;;;;;;;18.50;11.60;;;;;;;25.04;60.31;98160.27;436356;1247;107705;-42
2023/08/25 20:35:25;;;;;;;24.60;11.80;;;;;;;24.93;60.54;98163.77;436351;1247;99377;-43
2023/08/25 20:45:32;;;;;;;12.50;8.60;;;;;;;24.77;60.68;98180.77;436406;1252;108575;-42
2023/08/25 20:55:41;;;;;;;17.80;8.80;;;;;;;24.64;61.13;98183.56;436546;1250;99241;-43
2023/08/25 21:05:46;;;;;;;14.30;9.20;;;;;;;24.61;61.56;98179.08;436520;1251;111861;-43
2023/08/25 21:26:00;;;;;;;12.50;7.50;;;;;;;24.18;62.97;98168.89;436551;1247;99236;-44
2023/08/25 21:36:06;;;;;;;15.10;8.20;;;;;;;23.92;63.72;98132.23;436380;1247;107970;-42
2023/08/25 21:46:12;;;;;;;10.00;7.60;;;;;;;23.80;64.45;98122.67;436911;1253;99202;-43
2023/08/25 21:56:18;;;;;;;;;;;;;;;23.82;64.68;98136.01;439082;1259;111855;-42
2023/08/25 22:06:26;;;;;;;17.10;10.90;;;;;;;23.59;64.83;98120.78;438261;1247;107325;-43
2023/08/25 22:16:33;;;;;;;10.60;8.40;;;;;;;23.34;65.80;98133.94;438090;1247;99098;-43
2023/08/25 22:26:43;;;;;;;9.40;7.60;;;;;;;23.35;66.19;98140.38;436394;1252;106830;-44
2023/08/25 22:46:56;;;;;;;10.80;6.70;;;;;;;23.44;66.20;98137.20;438623;1247;110984;-44
2023/08/25 22:57:01;;;;;;;9.40;5.30;;;;;;;23.55;65.88;98143.00;436257;1252;108149;-43
2023/08/25 23:07:07;;;;;;;10.90;6.80;;;;;;;23.59;65.78;98134.28;436763;1247;101546;-42
2023/08/25 23:17:13;;;;;;;12.30;6.20;;;;;;;23.49;65.51;98122.32;436372;1252;108161;-44
2023/08/25 23:27:18;;;;;;;11.00;5.90;;;;;;;23.27;65.72;98117.63;436525;1252;99106;-43
2023/08/25 23:37:25;;;;;;;12.60;5.90;;;;;;;22.97;65.82;98119.83;436271;1252;110943;-43
2023/08/25 23:47:32;;;;;;;9.20;6.10;;;;;;;22.76;66.17;98107.09;436287;1252;107291;-42
